sensor_id;sensor_type;location;lat;lon;timestamp;temperature;humidity
24472;DHT22;12636;50.852;5.676;2024-02-26T00:02:01;6.10;2.50
24472;DHT22;12636;50.852;5.676;2024-02-26T00:04:28;6.10;28.80
24472;DHT22;12636;50.852;5.676;2024-02-26T00:06:55;6.10;36.50
24472;DHT22;12636;50.852;5.676;2024-02-26T00:09:25;6.10;46.90
24472;DHT22;12636;50.852;5.676;2024-02-26T00:11:51;6.10;70.50
24472;DHT22;12636;50.852;5.676;2024-02-26T00:14:19;6.10;83.00
24472;DHT22;12636;50.852;5.676;2024-02-26T00:16:46;6.00;82.60
24472;DHT22;12636;50.852;5.676;2024-02-26T00:19:13;6.00;99.90
24472;DHT22;12636;50.852;5.676;2024-02-26T00:21:40;6.00;99.90
24472;DHT22;12636;50.852;5.676;2024-02-26T00:24:07;6.10;99.90
24472;DHT22;12636;50.852;5.676;2024-02-26T00:26:35;6.10;99.90
24472;DHT22;12636;50.852;5.676;2024-02-26T00:29:02;6.00;99.90
24472;DHT22;12636;50.852;5.676;2024-02-26T00:31:29;6.00;99.90
24472;DHT22;12636;50.852;5.676;2024-02-26T00:33:56;6.00;99.90
24472;DHT22;12636;50.852;5.676;2024-02-26T00:36:22;5.90;99.90
24472;DHT22;12636;50.852;5.676;2024-02-26T00:38:49;5.90;99.90
24472;DHT22;12636;50.852;5.676;2024-02-26T00:41:16;5.90;99.90
24472;DHT22;12636;50.852;5.676;2024-02-26T00:43:44;5.90;99.90
24472;DHT22;12636;50.852;5.676;2024-02-26T00:46:11;5.90;99.90
24472;DHT22;12636;50.852;5.676;2024-02-26T00:48:38;5.80;99.90
24472;DHT22;12636;50.852;5.676;2024-02-26T00:51:05;5.80;99.90
24472;DHT22;12636;50.852;5.676;2024-02-26T00:53:36;5.80;99.90
24472;DHT22;12636;50.852;5.676;2024-02-26T00:56:03;5.80;99.90
24472;DHT22;12636;50.852;5.676;2024-02-26T00:58:30;5.80;99.90
24472;DHT22;12636;50.852;5.676;2024-02-26T01:00:58;5.80;99.90
24472;DHT22;12636;50.852;5.676;2024-02-26T01:03:25;5.80;99.90
24472;DHT22;12636;50.852;5.676;2024-02-26T01:05:52;5.80;99.90
24472;DHT22;12636;50.852;5.676;2024-02-26T01:08:18;5.80;99.90
24472;DHT22;12636;50.852;5.676;2024-02-26T01:10:45;5.70;99.90
24472;DHT22;12636;50.852;5.676;2024-02-26T01:13:12;5.70;99.90
24472;DHT22;12636;50.852;5.676;2024-02-26T01:15:39;5.80;99.90
24472;DHT22;12636;50.852;5.676;2024-02-26T01:18:07;5.80;99.90
24472;DHT22;12636;50.852;5.676;2024-02-26T01:20:34;5.80;99.90
24472;DHT22;12636;50.852;5.676;2024-02-26T01:23:02;5.80;99.90
24472;DHT22;12636;50.852;5.676;2024-02-26T01:25:29;5.80;99.90
24472;DHT22;12636;50.852;5.676;2024-02-26T01:27:55;5.80;99.90
24472;DHT22;12636;50.852;5.676;2024-02-26T01:30:22;5.90;99.90
24472;DHT22;12636;50.852;5.676;2024-02-26T01:32:49;5.90;99.90
24472;DHT22;12636;50.852;5.676;2024-02-26T01:35:18;5.90;99.90
24472;DHT22;12636;50.852;5.676;2024-02-26T01:37:45;5.90;99.90
24472;DHT22;12636;50.852;5.676;2024-02-26T01:40:12;5.90;99.90
24472;DHT22;12636;50.852;5.676;2024-02-26T01:42:43;5.90;99.90
24472;DHT22;12636;50.852;5.676;2024-02-26T01:45:12;5.90;99.90
24472;DHT22;12636;50.852;5.676;2024-02-26T01:47:41;5.90;99.90
24472;DHT22;12636;50.852;5.676;2024-02-26T01:50:08;5.90;99.90
24472;DHT22;12636;50.852;5.676;2024-02-26T01:52:37;5.90;99.90
24472;DHT22;12636;50.852;5.676;2024-02-26T01:55:04;5.90;99.90
24472;DHT22;12636;50.852;5.676;2024-02-26T01:57:32;5.90;99.90
24472;DHT22;12636;50.852;5.676;2024-02-26T01:59:59;6.00;99.90
24472;DHT22;12636;50.852;5.676;2024-02-26T02:02:26;6.00;99.90
24472;DHT22;12636;50.852;5.676;2024-02-26T02:04:53;6.00;99.90
24472;DHT22;12636;50.852;5.676;2024-02-26T02:07:20;6.00;99.90
24472;DHT22;12636;50.852;5.676;2024-02-26T02:09:49;6.00;99.90
24472;DHT22;12636;50.852;5.676;2024-02-26T02:12:16;6.00;99.90
24472;DHT22;12636;50.852;5.676;2024-02-26T02:14:43;6.00;99.90
24472;DHT22;12636;50.852;5.676;2024-02-26T02:17:10;6.00;99.90
24472;DHT22;12636;50.852;5.676;2024-02-26T02:19:37;6.00;99.90
24472;DHT22;12636;50.852;5.676;2024-02-26T02:22:05;6.00;99.90
24472;DHT22;12636;50.852;5.676;2024-02-26T02:24:32;6.00;99.90
24472;DHT22;12636;50.852;5.676;2024-02-26T02:26:59;6.00;99.90
24472;DHT22;12636;50.852;5.676;2024-02-26T02:29:26;6.00;99.90
24472;DHT22;12636;50.852;5.676;2024-02-26T02:31:53;5.90;99.90
24472;DHT22;12636;50.852;5.676;2024-02-26T02:34:20;6.00;99.90
24472;DHT22;12636;50.852;5.676;2024-02-26T02:36:48;6.00;99.90
24472;DHT22;12636;50.852;5.676;2024-02-26T02:39:16;6.00;99.90
24472;DHT22;12636;50.852;5.676;2024-02-26T02:41:43;6.00;99.90
24472;DHT22;12636;50.852;5.676;2024-02-26T02:44:10;6.00;99.90
24472;DHT22;12636;50.852;5.676;2024-02-26T02:46:37;6.00;99.90
24472;DHT22;12636;50.852;5.676;2024-02-26T02:49:07;6.00;99.90
24472;DHT22;12636;50.852;5.676;2024-02-26T02:51:34;6.00;99.90
24472;DHT22;12636;50.852;5.676;2024-02-26T02:54:01;5.90;99.90
24472;DHT22;12636;50.852;5.676;2024-02-26T02:56:29;5.80;99.90
24472;DHT22;12636;50.852;5.676;2024-02-26T02:58:56;5.80;99.90
24472;DHT22;12636;50.852;5.676;2024-02-26T03:01:23;5.90;99.90
24472;DHT22;12636;50.852;5.676;2024-02-26T03:03:50;5.80;99.90
24472;DHT22;12636;50.852;5.676;2024-02-26T03:06:16;5.70;99.90
24472;DHT22;12636;50.852;5.676;2024-02-26T03:08:43;5.70;99.90
24472;DHT22;12636;50.852;5.676;2024-02-26T03:11:12;5.70;99.90
24472;DHT22;12636;50.852;5.676;2024-02-26T03:13:41;5.70;99.90
24472;DHT22;12636;50.852;5.676;2024-02-26T03:16:08;5.60;99.90
24472;DHT22;12636;50.852;5.676;2024-02-26T03:18:34;5.60;99.90
24472;DHT22;12636;50.852;5.676;2024-02-26T03:21:01;5.60;99.90
24472;DHT22;12636;50.852;5.676;2024-02-26T03:23:29;5.60;99.90
24472;DHT22;12636;50.852;5.676;2024-02-26T03:25:57;5.60;99.90
24472;DHT22;12636;50.852;5.676;2024-02-26T03:28:24;5.60;99.90
24472;DHT22;12636;50.852;5.676;2024-02-26T03:30:53;5.60;99.90
24472;DHT22;12636;50.852;5.676;2024-02-26T03:33:19;5.60;99.90
24472;DHT22;12636;50.852;5.676;2024-02-26T03:35:46;5.70;99.90
24472;DHT22;12636;50.852;5.676;2024-02-26T03:38:13;5.70;99.90
24472;DHT22;12636;50.852;5.676;2024-02-26T03:40:40;5.70;99.90
24472;DHT22;12636;50.852;5.676;2024-02-26T03:43:07;5.70;99.90
24472;DHT22;12636;50.852;5.676;2024-02-26T03:45:34;5.70;99.90
24472;DHT22;12636;50.852;5.676;2024-02-26T03:48:02;5.70;99.90
24472;DHT22;12636;50.852;5.676;2024-02-26T03:50:29;5.70;99.90
24472;DHT22;12636;50.852;5.676;2024-02-26T03:52:55;5.70;99.90
24472;DHT22;12636;50.852;5.676;2024-02-26T03:55:23;5.70;99.90
24472;DHT22;12636;50.852;5.676;2024-02-26T03:57:50;5.70;99.90
24472;DHT22;12636;50.852;5.676;2024-02-26T04:00:17;5.70;99.90
24472;DHT22;12636;50.852;5.676;2024-02-26T04:02:44;5.70;99.90
24472;DHT22;12636;50.852;5.676;2024-02-26T04:05:12;5.70;99.90
24472;DHT22;12636;50.852;5.676;2024-02-26T04:07:39;5.70;99.90
24472;DHT22;12636;50.852;5.676;2024-02-26T04:10:08;5.70;99.90
24472;DHT22;12636;50.852;5.676;2024-02-26T04:12:35;5.70;99.90
24472;DHT22;12636;50.852;5.676;2024-02-26T04:15:05;5.70;99.90
24472;DHT22;12636;50.852;5.676;2024-02-26T04:17:32;5.70;99.90
24472;DHT22;12636;50.852;5.676;2024-02-26T04:19:59;5.70;99.90
24472;DHT22;12636;50.852;5.676;2024-02-26T04:22:27;5.70;99.90
24472;DHT22;12636;50.852;5.676;2024-02-26T04:24:54;5.70;99.90
24472;DHT22;12636;50.852;5.676;2024-02-26T04:27:20;5.70;99.90
24472;DHT22;12636;50.852;5.676;2024-02-26T04:29:47;5.70;99.90
24472;DHT22;12636;50.852;5.676;2024-02-26T04:32:14;5.70;99.90
24472;DHT22;12636;50.852;5.676;2024-02-26T04:34:41;5.70;99.90
24472;DHT22;12636;50.852;5.676;2024-02-26T04:37:08;5.70;99.90
24472;DHT22;12636;50.852;5.676;2024-02-26T04:39:36;5.70;99.90
24472;DHT22;12636;50.852;5.676;2024-02-26T04:42:03;5.70;99.90
24472;DHT22;12636;50.852;5.676;2024-02-26T04:44:30;5.70;99.90
24472;DHT22;12636;50.852;5.676;2024-02-26T04:46:57;5.60;99.90
24472;DHT22;12636;50.852;5.676;2024-02-26T04:49:24;5.60;99.90
24472;DHT22;12636;50.852;5.676;2024-02-26T04:51:51;5.60;99.90
24472;DHT22;12636;50.852;5.676;2024-02-26T04:54:17;5.70;99.90
24472;DHT22;12636;50.852;5.676;2024-02-26T04:56:46;5.60;99.90
24472;DHT22;12636;50.852;5.676;2024-02-26T04:59:12;5.60;99.90
24472;DHT22;12636;50.852;5.676;2024-02-26T05:01:39;5.60;99.90
24472;DHT22;12636;50.852;5.676;2024-02-26T05:04:06;5.60;99.90
24472;DHT22;12636;50.852;5.676;2024-02-26T05:06:33;5.60;99.90
24472;DHT22;12636;50.852;5.676;2024-02-26T05:09:00;5.60;99.90
24472;DHT22;12636;50.852;5.676;2024-02-26T05:11:28;5.60;99.90
24472;DHT22;12636;50.852;5.676;2024-02-26T05:13:57;5.60;99.90
24472;DHT22;12636;50.852;5.676;2024-02-26T05:16:25;5.60;99.90
24472;DHT22;12636;50.852;5.676;2024-02-26T05:18:52;5.60;99.90
24472;DHT22;12636;50.852;5.676;2024-02-26T05:21:19;5.60;99.90
24472;DHT22;12636;50.852;5.676;2024-02-26T05:23:46;5.60;99.90
24472;DHT22;12636;50.852;5.676;2024-02-26T05:26:19;5.60;99.90
24472;DHT22;12636;50.852;5.676;2024-02-26T05:28:46;5.60;99.90
24472;DHT22;12636;50.852;5.676;2024-02-26T05:31:14;5.60;99.90
24472;DHT22;12636;50.852;5.676;2024-02-26T05:33:41;5.60;99.90
24472;DHT22;12636;50.852;5.676;2024-02-26T05:36:08;5.60;99.90
24472;DHT22;12636;50.852;5.676;2024-02-26T05:38:34;5.60;99.90
24472;DHT22;12636;50.852;5.676;2024-02-26T05:41:01;5.60;99.90
24472;DHT22;12636;50.852;5.676;2024-02-26T05:43:30;5.60;99.90
24472;DHT22;12636;50.852;5.676;2024-02-26T05:45:57;5.60;99.90
24472;DHT22;12636;50.852;5.676;2024-02-26T05:48:25;5.60;99.90
24472;DHT22;12636;50.852;5.676;2024-02-26T05:50:52;5.60;99.90
24472;DHT22;12636;50.852;5.676;2024-02-26T05:53:18;5.60;99.90
24472;DHT22;12636;50.852;5.676;2024-02-26T05:55:45;5.60;99.90
24472;DHT22;12636;50.852;5.676;2024-02-26T05:58:12;5.60;99.90
24472;DHT22;12636;50.852;5.676;2024-02-26T06:00:39;5.60;99.90
24472;DHT22;12636;50.852;5.676;2024-02-26T06:03:06;5.70;99.90
24472;DHT22;12636;50.852;5.676;2024-02-26T06:05:34;5.60;99.90
24472;DHT22;12636;50.852;5.676;2024-02-26T06:08:01;5.60;99.90
24472;DHT22;12636;50.852;5.676;2024-02-26T06:10:28;5.60;99.90
24472;DHT22;12636;50.852;5.676;2024-02-26T06:12:55;5.60;99.90
24472;DHT22;12636;50.852;5.676;2024-02-26T06:15:22;5.60;99.90
24472;DHT22;12636;50.852;5.676;2024-02-26T06:17:49;5.60;99.90
24472;DHT22;12636;50.852;5.676;2024-02-26T06:20:16;5.60;99.90
24472;DHT22;12636;50.852;5.676;2024-02-26T06:22:44;5.60;99.90
24472;DHT22;12636;50.852;5.676;2024-02-26T06:25:11;5.70;99.90
24472;DHT22;12636;50.852;5.676;2024-02-26T06:27:38;5.60;99.90
24472;DHT22;12636;50.852;5.676;2024-02-26T06:30:05;5.60;99.90
24472;DHT22;12636;50.852;5.676;2024-02-26T06:32:32;5.60;99.90
24472;DHT22;12636;50.852;5.676;2024-02-26T06:34:59;5.60;99.90
24472;DHT22;12636;50.852;5.676;2024-02-26T06:37:26;5.50;99.90
24472;DHT22;12636;50.852;5.676;2024-02-26T06:39:54;5.60;99.90
24472;DHT22;12636;50.852;5.676;2024-02-26T06:42:21;5.60;99.90
24472;DHT22;12636;50.852;5.676;2024-02-26T06:44:48;5.50;99.90
24472;DHT22;12636;50.852;5.676;2024-02-26T06:47:14;5.60;99.90
24472;DHT22;12636;50.852;5.676;2024-02-26T06:49:41;5.60;99.90
24472;DHT22;12636;50.852;5.676;2024-02-26T06:52:09;5.50;99.90
24472;DHT22;12636;50.852;5.676;2024-02-26T06:54:35;5.50;99.90
24472;DHT22;12636;50.852;5.676;2024-02-26T06:57:04;5.50;99.90
24472;DHT22;12636;50.852;5.676;2024-02-26T06:59:31;5.50;99.90
24472;DHT22;12636;50.852;5.676;2024-02-26T07:01:57;5.50;99.90
24472;DHT22;12636;50.852;5.676;2024-02-26T07:04:24;5.50;99.90
24472;DHT22;12636;50.852;5.676;2024-02-26T07:06:51;5.50;99.90
24472;DHT22;12636;50.852;5.676;2024-02-26T07:09:18;5.50;99.90
24472;DHT22;12636;50.852;5.676;2024-02-26T07:11:45;5.50;99.90
24472;DHT22;12636;50.852;5.676;2024-02-26T07:14:13;5.40;99.90
24472;DHT22;12636;50.852;5.676;2024-02-26T07:16:40;5.40;99.90
24472;DHT22;12636;50.852;5.676;2024-02-26T07:19:07;5.40;99.90
24472;DHT22;12636;50.852;5.676;2024-02-26T07:21:34;5.40;99.90
24472;DHT22;12636;50.852;5.676;2024-02-26T07:24:01;5.40;99.90
24472;DHT22;12636;50.852;5.676;2024-02-26T07:26:27;5.40;99.90
24472;DHT22;12636;50.852;5.676;2024-02-26T07:28:56;5.40;99.90
24472;DHT22;12636;50.852;5.676;2024-02-26T07:31:24;5.40;99.90
24472;DHT22;12636;50.852;5.676;2024-02-26T07:33:51;5.40;99.90
24472;DHT22;12636;50.852;5.676;2024-02-26T07:36:18;5.40;99.90
24472;DHT22;12636;50.852;5.676;2024-02-26T07:38:45;5.40;99.90
24472;DHT22;12636;50.852;5.676;2024-02-26T07:41:12;5.40;99.90
24472;DHT22;12636;50.852;5.676;2024-02-26T07:43:39;5.40;99.90
24472;DHT22;12636;50.852;5.676;2024-02-26T07:46:06;5.40;99.90
24472;DHT22;12636;50.852;5.676;2024-02-26T07:48:34;5.40;99.90
24472;DHT22;12636;50.852;5.676;2024-02-26T07:51:01;5.40;99.90
24472;DHT22;12636;50.852;5.676;2024-02-26T07:53:28;5.40;99.90
24472;DHT22;12636;50.852;5.676;2024-02-26T07:55:55;5.40;99.90
24472;DHT22;12636;50.852;5.676;2024-02-26T07:58:23;5.40;99.90
24472;DHT22;12636;50.852;5.676;2024-02-26T08:00:50;5.40;99.90
24472;DHT22;12636;50.852;5.676;2024-02-26T08:03:17;5.40;99.90
24472;DHT22;12636;50.852;5.676;2024-02-26T08:05:45;5.40;99.90
24472;DHT22;12636;50.852;5.676;2024-02-26T08:08:12;5.50;99.90
24472;DHT22;12636;50.852;5.676;2024-02-26T08:10:38;5.40;99.90
24472;DHT22;12636;50.852;5.676;2024-02-26T08:13:05;5.50;99.90
24472;DHT22;12636;50.852;5.676;2024-02-26T08:15:32;5.50;99.90
24472;DHT22;12636;50.852;5.676;2024-02-26T08:18:00;5.50;99.90
24472;DHT22;12636;50.852;5.676;2024-02-26T08:20:28;5.50;99.90
24472;DHT22;12636;50.852;5.676;2024-02-26T08:22:57;5.50;99.90
24472;DHT22;12636;50.852;5.676;2024-02-26T08:25:23;5.50;99.90
24472;DHT22;12636;50.852;5.676;2024-02-26T08:27:51;5.50;99.90
24472;DHT22;12636;50.852;5.676;2024-02-26T08:30:17;5.50;99.90
24472;DHT22;12636;50.852;5.676;2024-02-26T08:32:44;5.50;99.90
24472;DHT22;12636;50.852;5.676;2024-02-26T08:35:11;5.50;99.90
24472;DHT22;12636;50.852;5.676;2024-02-26T08:37:38;5.50;99.90
24472;DHT22;12636;50.852;5.676;2024-02-26T08:40:07;5.50;99.90
24472;DHT22;12636;50.852;5.676;2024-02-26T08:42:34;5.60;99.90
24472;DHT22;12636;50.852;5.676;2024-02-26T08:45:01;5.60;99.90
24472;DHT22;12636;50.852;5.676;2024-02-26T08:47:28;5.60;99.90
24472;DHT22;12636;50.852;5.676;2024-02-26T08:49:55;5.70;99.90
24472;DHT22;12636;50.852;5.676;2024-02-26T08:52:22;5.80;99.90
24472;DHT22;12636;50.852;5.676;2024-02-26T08:54:49;5.80;99.90
24472;DHT22;12636;50.852;5.676;2024-02-26T08:57:17;5.80;99.90
24472;DHT22;12636;50.852;5.676;2024-02-26T08:59:44;5.80;99.90
24472;DHT22;12636;50.852;5.676;2024-02-26T09:02:11;5.80;99.90
24472;DHT22;12636;50.852;5.676;2024-02-26T09:04:38;5.90;99.90
24472;DHT22;12636;50.852;5.676;2024-02-26T09:07:05;5.90;99.90
24472;DHT22;12636;50.852;5.676;2024-02-26T09:09:32;5.90;99.90
24472;DHT22;12636;50.852;5.676;2024-02-26T09:11:59;5.90;99.90
24472;DHT22;12636;50.852;5.676;2024-02-26T09:14:27;5.90;99.90
24472;DHT22;12636;50.852;5.676;2024-02-26T09:16:54;6.00;99.90
24472;DHT22;12636;50.852;5.676;2024-02-26T09:19:21;6.00;99.90
24472;DHT22;12636;50.852;5.676;2024-02-26T09:21:48;6.00;99.90
24472;DHT22;12636;50.852;5.676;2024-02-26T09:24:15;6.00;99.90
24472;DHT22;12636;50.852;5.676;2024-02-26T09:26:42;6.00;99.90
24472;DHT22;12636;50.852;5.676;2024-02-26T09:29:09;6.00;99.90
24472;DHT22;12636;50.852;5.676;2024-02-26T09:31:37;6.00;99.90
24472;DHT22;12636;50.852;5.676;2024-02-26T09:34:06;6.00;99.90
24472;DHT22;12636;50.852;5.676;2024-02-26T09:36:33;6.00;99.90
24472;DHT22;12636;50.852;5.676;2024-02-26T09:39:00;6.00;99.90
24472;DHT22;12636;50.852;5.676;2024-02-26T09:41:28;6.00;99.90
24472;DHT22;12636;50.852;5.676;2024-02-26T09:43:55;5.90;99.90
24472;DHT22;12636;50.852;5.676;2024-02-26T09:46:23;5.90;99.90
24472;DHT22;12636;50.852;5.676;2024-02-26T09:48:51;5.90;99.90
24472;DHT22;12636;50.852;5.676;2024-02-26T09:51:19;5.90;99.90
24472;DHT22;12636;50.852;5.676;2024-02-26T09:53:46;6.00;99.90
24472;DHT22;12636;50.852;5.676;2024-02-26T09:56:14;5.90;99.90
24472;DHT22;12636;50.852;5.676;2024-02-26T09:58:41;5.90;99.90
24472;DHT22;12636;50.852;5.676;2024-02-26T10:01:11;5.90;99.90
24472;DHT22;12636;50.852;5.676;2024-02-26T10:03:40;5.90;99.90
24472;DHT22;12636;50.852;5.676;2024-02-26T10:06:10;5.90;99.90
24472;DHT22;12636;50.852;5.676;2024-02-26T10:08:37;5.90;99.90
24472;DHT22;12636;50.852;5.676;2024-02-26T10:11:05;5.90;99.90
24472;DHT22;12636;50.852;5.676;2024-02-26T10:13:32;5.90;99.90
24472;DHT22;12636;50.852;5.676;2024-02-26T10:16:00;5.90;99.90
24472;DHT22;12636;50.852;5.676;2024-02-26T10:21:12;6.10;99.90
24472;DHT22;12636;50.852;5.676;2024-02-26T10:23:39;6.20;99.90
24472;DHT22;12636;50.852;5.676;2024-02-26T10:26:06;6.20;99.90
24472;DHT22;12636;50.852;5.676;2024-02-26T10:28:33;6.30;99.90
24472;DHT22;12636;50.852;5.676;2024-02-26T10:31:00;6.30;99.90
24472;DHT22;12636;50.852;5.676;2024-02-26T10:33:27;6.30;99.90
24472;DHT22;12636;50.852;5.676;2024-02-26T10:35:54;6.30;99.90
24472;DHT22;12636;50.852;5.676;2024-02-26T10:38:22;6.40;99.90
24472;DHT22;12636;50.852;5.676;2024-02-26T10:40:49;6.30;99.90
24472;DHT22;12636;50.852;5.676;2024-02-26T10:43:16;6.30;99.90
24472;DHT22;12636;50.852;5.676;2024-02-26T10:45:44;6.30;99.90
24472;DHT22;12636;50.852;5.676;2024-02-26T10:48:12;6.30;99.90
24472;DHT22;12636;50.852;5.676;2024-02-26T10:50:39;6.20;99.90
24472;DHT22;12636;50.852;5.676;2024-02-26T10:53:07;6.20;99.90
24472;DHT22;12636;50.852;5.676;2024-02-26T10:55:38;6.30;99.90
24472;DHT22;12636;50.852;5.676;2024-02-26T10:58:06;6.20;99.90
24472;DHT22;12636;50.852;5.676;2024-02-26T11:00:33;6.30;99.90
24472;DHT22;12636;50.852;5.676;2024-02-26T11:03:02;6.30;99.90
24472;DHT22;12636;50.852;5.676;2024-02-26T11:05:31;6.30;99.90
24472;DHT22;12636;50.852;5.676;2024-02-26T11:07:59;6.30;99.90
24472;DHT22;12636;50.852;5.676;2024-02-26T11:10:26;6.40;99.90
24472;DHT22;12636;50.852;5.676;2024-02-26T11:12:56;6.40;99.90
24472;DHT22;12636;50.852;5.676;2024-02-26T11:15:23;6.40;99.90
24472;DHT22;12636;50.852;5.676;2024-02-26T11:17:50;6.50;99.90
24472;DHT22;12636;50.852;5.676;2024-02-26T11:20:19;6.50;99.90
24472;DHT22;12636;50.852;5.676;2024-02-26T11:22:46;6.50;99.90
24472;DHT22;12636;50.852;5.676;2024-02-26T11:25:13;6.50;99.90
24472;DHT22;12636;50.852;5.676;2024-02-26T11:27:43;6.50;99.90
24472;DHT22;12636;50.852;5.676;2024-02-26T11:30:15;6.70;99.90
24472;DHT22;12636;50.852;5.676;2024-02-26T11:32:44;6.90;99.90
24472;DHT22;12636;50.852;5.676;2024-02-26T11:35:11;6.90;99.90
24472;DHT22;12636;50.852;5.676;2024-02-26T11:37:40;7.00;99.90
24472;DHT22;12636;50.852;5.676;2024-02-26T11:40:10;7.20;99.90
24472;DHT22;12636;50.852;5.676;2024-02-26T11:42:42;7.50;99.90
24472;DHT22;12636;50.852;5.676;2024-02-26T11:47:56;7.60;99.90
24472;DHT22;12636;50.852;5.676;2024-02-26T11:50:34;7.70;99.90
24472;DHT22;12636;50.852;5.676;2024-02-26T11:53:19;7.50;99.90
24472;DHT22;12636;50.852;5.676;2024-02-26T11:55:46;7.50;99.90
24472;DHT22;12636;50.852;5.676;2024-02-26T11:58:13;7.50;99.90
24472;DHT22;12636;50.852;5.676;2024-02-26T12:00:40;7.50;99.90
24472;DHT22;12636;50.852;5.676;2024-02-26T12:03:08;7.60;99.90
24472;DHT22;12636;50.852;5.676;2024-02-26T12:05:37;7.50;99.90
24472;DHT22;12636;50.852;5.676;2024-02-26T12:08:06;7.40;99.90
24472;DHT22;12636;50.852;5.676;2024-02-26T12:10:34;7.30;99.90
24472;DHT22;12636;50.852;5.676;2024-02-26T12:13:04;7.40;99.90
24472;DHT22;12636;50.852;5.676;2024-02-26T12:15:33;7.40;99.90
24472;DHT22;12636;50.852;5.676;2024-02-26T12:18:04;7.30;99.90
24472;DHT22;12636;50.852;5.676;2024-02-26T12:20:32;7.30;99.90
24472;DHT22;12636;50.852;5.676;2024-02-26T12:23:00;7.20;99.90
24472;DHT22;12636;50.852;5.676;2024-02-26T12:25:28;7.20;99.90
24472;DHT22;12636;50.852;5.676;2024-02-26T12:27:55;7.20;99.90
24472;DHT22;12636;50.852;5.676;2024-02-26T12:30:23;7.10;99.90
24472;DHT22;12636;50.852;5.676;2024-02-26T12:32:51;7.00;99.90
24472;DHT22;12636;50.852;5.676;2024-02-26T12:35:22;7.00;99.90
24472;DHT22;12636;50.852;5.676;2024-02-26T12:37:51;7.00;99.90
24472;DHT22;12636;50.852;5.676;2024-02-26T12:40:18;6.90;99.90
24472;DHT22;12636;50.852;5.676;2024-02-26T12:42:46;6.70;99.90
24472;DHT22;12636;50.852;5.676;2024-02-26T12:45:13;6.70;99.90
24472;DHT22;12636;50.852;5.676;2024-02-26T12:47:41;6.70;99.90
24472;DHT22;12636;50.852;5.676;2024-02-26T12:50:09;6.70;99.90
24472;DHT22;12636;50.852;5.676;2024-02-26T12:52:37;6.60;99.90
24472;DHT22;12636;50.852;5.676;2024-02-26T12:55:07;6.60;99.90
24472;DHT22;12636;50.852;5.676;2024-02-26T12:57:35;6.60;99.90
24472;DHT22;12636;50.852;5.676;2024-02-26T13:00:03;6.60;99.90
24472;DHT22;12636;50.852;5.676;2024-02-26T13:02:31;6.50;99.90
24472;DHT22;12636;50.852;5.676;2024-02-26T13:04:58;6.60;99.90
24472;DHT22;12636;50.852;5.676;2024-02-26T13:07:27;6.50;99.90
24472;DHT22;12636;50.852;5.676;2024-02-26T13:09:54;6.60;99.90
24472;DHT22;12636;50.852;5.676;2024-02-26T13:12:22;6.50;99.90
24472;DHT22;12636;50.852;5.676;2024-02-26T13:14:58;6.50;99.90
24472;DHT22;12636;50.852;5.676;2024-02-26T13:17:25;6.60;99.90
24472;DHT22;12636;50.852;5.676;2024-02-26T13:19:53;6.50;99.90
24472;DHT22;12636;50.852;5.676;2024-02-26T13:22:20;6.50;99.90
24472;DHT22;12636;50.852;5.676;2024-02-26T13:24:53;6.50;99.90
24472;DHT22;12636;50.852;5.676;2024-02-26T13:27:22;6.50;99.90
24472;DHT22;12636;50.852;5.676;2024-02-26T13:30:01;6.50;99.90
24472;DHT22;12636;50.852;5.676;2024-02-26T13:32:28;6.50;99.90
24472;DHT22;12636;50.852;5.676;2024-02-26T13:35:03;6.50;99.90
24472;DHT22;12636;50.852;5.676;2024-02-26T13:37:30;6.50;99.90
24472;DHT22;12636;50.852;5.676;2024-02-26T13:39:57;6.50;99.90
24472;DHT22;12636;50.852;5.676;2024-02-26T13:42:26;6.40;99.90
24472;DHT22;12636;50.852;5.676;2024-02-26T13:44:52;6.50;99.90
24472;DHT22;12636;50.852;5.676;2024-02-26T13:47:19;6.40;99.90
24472;DHT22;12636;50.852;5.676;2024-02-26T13:49:46;6.50;99.90
24472;DHT22;12636;50.852;5.676;2024-02-26T13:52:13;6.40;99.90
24472;DHT22;12636;50.852;5.676;2024-02-26T13:54:40;6.50;99.90
24472;DHT22;12636;50.852;5.676;2024-02-26T13:57:07;6.50;99.90
24472;DHT22;12636;50.852;5.676;2024-02-26T13:59:36;6.50;99.90
24472;DHT22;12636;50.852;5.676;2024-02-26T14:02:07;6.60;99.90
24472;DHT22;12636;50.852;5.676;2024-02-26T14:04:34;6.60;99.90
24472;DHT22;12636;50.852;5.676;2024-02-26T14:07:01;6.60;99.90
24472;DHT22;12636;50.852;5.676;2024-02-26T14:09:28;6.60;99.90
24472;DHT22;12636;50.852;5.676;2024-02-26T14:11:55;6.70;99.90
24472;DHT22;12636;50.852;5.676;2024-02-26T14:14:22;6.60;99.90
24472;DHT22;12636;50.852;5.676;2024-02-26T14:16:50;6.70;99.90
24472;DHT22;12636;50.852;5.676;2024-02-26T14:19:17;6.70;99.90
24472;DHT22;12636;50.852;5.676;2024-02-26T14:21:44;6.60;99.90
24472;DHT22;12636;50.852;5.676;2024-02-26T14:24:11;6.60;99.90
24472;DHT22;12636;50.852;5.676;2024-02-26T14:26:38;6.60;99.90
24472;DHT22;12636;50.852;5.676;2024-02-26T14:29:06;6.50;99.90
24472;DHT22;12636;50.852;5.676;2024-02-26T14:31:33;6.40;99.90
24472;DHT22;12636;50.852;5.676;2024-02-26T14:34:02;6.30;99.90
24472;DHT22;12636;50.852;5.676;2024-02-26T14:36:28;6.40;99.90
24472;DHT22;12636;50.852;5.676;2024-02-26T14:38:55;6.40;99.90
24472;DHT22;12636;50.852;5.676;2024-02-26T14:41:22;6.40;99.90
24472;DHT22;12636;50.852;5.676;2024-02-26T14:43:49;6.30;99.90
24472;DHT22;12636;50.852;5.676;2024-02-26T14:46:16;6.30;99.90
24472;DHT22;12636;50.852;5.676;2024-02-26T14:48:43;6.30;99.90
24472;DHT22;12636;50.852;5.676;2024-02-26T14:51:11;6.30;99.90
24472;DHT22;12636;50.852;5.676;2024-02-26T14:53:38;6.30;99.90
24472;DHT22;12636;50.852;5.676;2024-02-26T14:56:05;6.30;99.90
24472;DHT22;12636;50.852;5.676;2024-02-26T14:58:32;6.30;99.90
24472;DHT22;12636;50.852;5.676;2024-02-26T15:00:58;6.30;99.90
24472;DHT22;12636;50.852;5.676;2024-02-26T15:03:25;6.20;99.90
24472;DHT22;12636;50.852;5.676;2024-02-26T15:05:52;6.20;99.90
24472;DHT22;12636;50.852;5.676;2024-02-26T15:08:20;6.20;99.90
24472;DHT22;12636;50.852;5.676;2024-02-26T15:10:47;6.20;99.90
24472;DHT22;12636;50.852;5.676;2024-02-26T15:13:14;6.20;99.90
24472;DHT22;12636;50.852;5.676;2024-02-26T15:15:43;6.10;99.90
24472;DHT22;12636;50.852;5.676;2024-02-26T15:18:10;6.20;99.90
24472;DHT22;12636;50.852;5.676;2024-02-26T15:20:41;6.10;99.90
24472;DHT22;12636;50.852;5.676;2024-02-26T15:23:08;6.20;99.90
24472;DHT22;12636;50.852;5.676;2024-02-26T15:25:36;6.10;99.90
24472;DHT22;12636;50.852;5.676;2024-02-26T15:28:04;6.10;99.90
24472;DHT22;12636;50.852;5.676;2024-02-26T15:30:31;6.20;99.90
24472;DHT22;12636;50.852;5.676;2024-02-26T15:32:58;6.20;99.90
24472;DHT22;12636;50.852;5.676;2024-02-26T15:35:26;6.20;99.90
24472;DHT22;12636;50.852;5.676;2024-02-26T15:37:53;6.20;99.90
24472;DHT22;12636;50.852;5.676;2024-02-26T15:40:20;6.20;99.90
24472;DHT22;12636;50.852;5.676;2024-02-26T15:42:49;6.20;99.90
24472;DHT22;12636;50.852;5.676;2024-02-26T15:45:16;6.20;99.90
24472;DHT22;12636;50.852;5.676;2024-02-26T15:47:43;6.30;99.90
24472;DHT22;12636;50.852;5.676;2024-02-26T15:50:10;6.30;99.90
24472;DHT22;12636;50.852;5.676;2024-02-26T15:52:37;6.30;99.90